createdAt,value
2017-10-28T00:00:53.317Z,0
2017-10-28T00:01:53.313Z,0
2017-10-28T00:02:53.296Z,0
2017-10-28T00:03:53.298Z,0
2017-10-28T00:04:53.282Z,0
2017-10-28T00:05:52.625Z,0
2017-10-28T00:06:53.262Z,0
2017-10-28T00:07:53.254Z,0
2017-10-28T00:08:52.925Z,0
2017-10-28T00:09:53.239Z,0
2017-10-28T00:10:52.904Z,0
2017-10-28T00:11:52.894Z,0
2017-10-28T00:12:52.890Z,0
2017-10-28T00:13:53.205Z,0
2017-10-28T00:14:53.198Z,0
2017-10-28T00:15:52.863Z,0
2017-10-28T00:16:52.850Z,0
2017-10-28T00:17:52.839Z,0
2017-10-28T00:18:53.164Z,0
2017-10-28T00:19:53.143Z,0
2017-10-28T00:20:53.138Z,0
2017-10-28T00:21:53.125Z,0
2017-10-28T00:22:53.118Z,0
2017-10-28T00:23:52.781Z,0
2017-10-28T00:24:53.094Z,0
2017-10-28T00:25:53.092Z,0
2017-10-28T00:26:52.765Z,0
2017-10-28T00:27:53.072Z,0
2017-10-28T00:28:53.059Z,0
2017-10-28T00:29:52.730Z,0
2017-10-28T00:30:53.044Z,0
2017-10-28T00:31:52.730Z,0
2017-10-28T00:32:53.024Z,0
2017-10-28T00:33:52.694Z,0
2017-10-28T00:34:53.025Z,0
2017-10-28T00:35:52.680Z,0
2017-10-28T00:36:52.666Z,0
2017-10-28T00:37:52.983Z,0
2017-10-28T00:38:52.648Z,0
2017-10-28T00:39:52.639Z,0
2017-10-28T00:40:52.952Z,0
2017-10-28T00:41:52.963Z,0
2017-10-28T00:42:52.929Z,0
2017-10-28T00:43:52.942Z,0
2017-10-28T00:44:52.914Z,0
2017-10-28T00:45:52.910Z,0
2017-10-28T00:46:52.897Z,0
2017-10-28T00:47:52.892Z,0
2017-10-28T00:48:52.556Z,0
2017-10-28T00:49:52.873Z,0
2017-10-28T00:50:52.858Z,0
2017-10-28T00:51:52.856Z,0
2017-10-28T00:52:52.524Z,0
2017-10-28T00:53:52.829Z,0
2017-10-28T00:54:52.823Z,0
2017-10-28T00:55:53.077Z,0
2017-10-28T00:56:52.810Z,0
2017-10-28T00:57:52.472Z,0
2017-10-28T00:58:52.792Z,0
2017-10-28T00:59:52.783Z,0
2017-10-28T01:00:52.447Z,0
2017-10-28T01:01:52.775Z,0
2017-10-28T01:02:52.432Z,0
2017-10-28T01:03:52.750Z,0
2017-10-28T01:04:52.417Z,0
2017-10-28T01:05:53.028Z,0
2017-10-28T01:06:52.729Z,0
2017-10-28T01:07:52.712Z,0
2017-10-28T01:08:52.699Z,0
2017-10-28T01:09:52.054Z,0
2017-10-28T01:10:52.356Z,0
2017-10-28T01:11:52.353Z,0
2017-10-28T01:12:52.670Z,0
2017-10-28T01:13:52.660Z,0
2017-10-28T01:14:52.646Z,0
2017-10-28T01:15:51.995Z,0
2017-10-28T01:16:52.312Z,0
2017-10-28T01:17:52.620Z,0
2017-10-28T01:18:52.608Z,0
2017-10-28T01:19:52.599Z,0
2017-10-28T01:20:52.594Z,0
2017-10-28T01:21:52.266Z,0
2017-10-28T01:22:52.572Z,0
2017-10-28T01:23:52.561Z,0
2017-10-28T01:24:52.234Z,0
2017-10-28T01:25:52.551Z,0
2017-10-28T01:26:52.471Z,0
2017-10-28T01:27:52.530Z,0
2017-10-28T01:28:52.199Z,0
2017-10-28T01:29:52.512Z,0
2017-10-28T01:30:52.499Z,0
2017-10-28T01:31:52.493Z,0
2017-10-28T01:32:52.495Z,0
2017-10-28T01:33:52.476Z,0
2017-10-28T01:34:52.143Z,0
2017-10-28T01:35:52.453Z,0
2017-10-28T01:36:52.128Z,0
2017-10-28T01:37:52.441Z,0
2017-10-28T01:38:52.115Z,0
2017-10-28T01:39:52.429Z,0
2017-10-28T01:40:52.417Z,0
2017-10-28T01:41:52.405Z,0
2017-10-28T01:42:52.076Z,0
2017-10-28T01:43:52.387Z,0
2017-10-28T01:44:52.386Z,0
2017-10-28T01:45:52.065Z,0
2017-10-28T01:46:52.039Z,0
2017-10-28T01:47:52.363Z,0
2017-10-28T01:48:52.345Z,0
2017-10-28T01:49:52.347Z,0
2017-10-28T01:50:52.333Z,0
2017-10-28T01:51:52.011Z,0
2017-10-28T01:52:51.994Z,0
2017-10-28T01:53:52.309Z,0
2017-10-28T01:54:52.316Z,0
2017-10-28T01:55:51.961Z,0
2017-10-28T01:56:52.275Z,0
2017-10-28T01:57:52.192Z,0
2017-10-28T01:58:51.933Z,0
2017-10-28T01:59:52.249Z,0
2017-10-28T02:00:52.244Z,0
2017-10-28T02:01:52.229Z,0
2017-10-28T02:02:52.236Z,0
2017-10-28T02:03:52.212Z,0
2017-10-28T02:04:51.882Z,0
2017-10-28T02:05:52.195Z,0
2017-10-28T02:06:52.190Z,0
2017-10-28T02:07:51.869Z,0
2017-10-28T02:08:52.190Z,0
2017-10-28T02:09:52.160Z,0
2017-10-28T02:10:52.156Z,0
2017-10-28T02:11:52.147Z,0
2017-10-28T02:12:52.134Z,0
2017-10-28T02:13:51.491Z,0
2017-10-28T02:14:52.118Z,0
2017-10-28T02:15:52.112Z,0
2017-10-28T02:16:52.125Z,0
2017-10-28T02:17:51.770Z,0
2017-10-28T02:18:52.121Z,0
2017-10-28T02:19:52.091Z,0
2017-10-28T02:20:52.073Z,0
2017-10-28T02:21:52.056Z,0
2017-10-28T02:22:52.061Z,0
2017-10-28T02:23:52.039Z,0
2017-10-28T02:24:52.027Z,0
2017-10-28T02:25:52.029Z,0
2017-10-28T02:26:52.010Z,0
2017-10-28T02:27:51.361Z,0
2017-10-28T02:28:52.273Z,0
2017-10-28T02:29:51.985Z,0
2017-10-28T02:30:52.008Z,0
2017-10-28T02:31:51.977Z,0
2017-10-28T02:32:51.639Z,0
2017-10-28T02:33:51.947Z,0
2017-10-28T02:34:51.944Z,0
2017-10-28T02:35:51.288Z,0
2017-10-28T02:36:51.935Z,0
2017-10-28T02:37:51.919Z,0
2017-10-28T02:38:51.585Z,0
2017-10-28T02:39:51.580Z,0
2017-10-28T02:40:51.894Z,0
2017-10-28T02:41:51.892Z,0
2017-10-28T02:42:51.562Z,0
2017-10-28T02:43:51.860Z,0
2017-10-28T02:44:51.532Z,0
2017-10-28T02:45:51.850Z,0
2017-10-28T02:46:51.831Z,0
2017-10-28T02:47:51.833Z,0
2017-10-28T02:48:51.492Z,0
2017-10-28T02:49:51.813Z,0
2017-10-28T02:50:51.471Z,0
2017-10-28T02:51:51.789Z,0
2017-10-28T02:52:51.780Z,0
2017-10-28T02:53:51.449Z,0
2017-10-28T02:54:51.767Z,0
2017-10-28T02:55:51.749Z,0
2017-10-28T02:56:51.746Z,0
2017-10-28T02:57:51.415Z,0
2017-10-28T02:58:51.725Z,0
2017-10-28T02:59:51.404Z,0
2017-10-28T03:00:51.705Z,0
2017-10-28T03:01:51.696Z,0
2017-10-28T03:02:51.369Z,0
2017-10-28T03:03:51.678Z,0
2017-10-28T03:04:51.348Z,0
2017-10-28T03:05:51.660Z,0
2017-10-28T03:06:51.649Z,0
2017-10-28T03:07:51.320Z,0
2017-10-28T03:08:51.631Z,0
2017-10-28T03:09:51.636Z,0
2017-10-28T03:10:51.610Z,0
2017-10-28T03:11:50.961Z,0
2017-10-28T03:12:51.597Z,0
2017-10-28T03:13:51.265Z,0
2017-10-28T03:14:50.608Z,0
2017-10-28T03:15:51.586Z,0
2017-10-28T03:16:51.234Z,0
2017-10-28T03:17:51.584Z,0
2017-10-28T03:18:51.545Z,0
2017-10-28T03:19:51.536Z,0
2017-10-28T03:20:50.878Z,0
2017-10-28T03:21:51.511Z,0
2017-10-28T03:22:51.535Z,0
2017-10-28T03:23:51.497Z,0
2017-10-28T03:24:51.486Z,0
2017-10-28T03:25:51.481Z,0
2017-10-28T03:26:51.154Z,0
2017-10-28T03:27:51.457Z,0
2017-10-28T03:28:51.465Z,0
2017-10-28T03:29:51.440Z,0
2017-10-28T03:30:51.437Z,0
2017-10-28T03:31:51.419Z,0
2017-10-28T03:32:51.420Z,0
2017-10-28T03:33:51.401Z,0
2017-10-28T03:34:51.395Z,0
2017-10-28T03:35:51.388Z,0
2017-10-28T03:36:51.380Z,0
2017-10-28T03:37:51.371Z,0
2017-10-28T03:38:51.364Z,0
2017-10-28T03:39:51.341Z,0
2017-10-28T03:40:51.022Z,0
2017-10-28T03:41:51.333Z,0
2017-10-28T03:42:51.318Z,0
2017-10-28T03:43:51.314Z,0
2017-10-28T03:44:51.305Z,0
2017-10-28T03:45:51.289Z,0
2017-10-28T03:46:51.285Z,0
2017-10-28T03:47:51.270Z,0
2017-10-28T03:48:51.269Z,0
2017-10-28T03:49:51.249Z,0
2017-10-28T03:50:50.920Z,0
2017-10-28T03:51:50.912Z,0
2017-10-28T03:52:51.236Z,0
2017-10-28T03:53:51.222Z,0
2017-10-28T03:54:51.210Z,0
2017-10-28T03:55:50.873Z,0
2017-10-28T03:56:51.184Z,0
2017-10-28T03:57:50.857Z,0
2017-10-28T03:58:50.844Z,0
2017-10-28T03:59:51.171Z,0
2017-10-28T04:00:50.511Z,0
2017-10-28T04:01:51.151Z,0
2017-10-28T04:02:51.145Z,0
2017-10-28T04:03:50.803Z,0
2017-10-28T04:04:51.113Z,0
2017-10-28T04:05:50.824Z,0
2017-10-28T04:06:51.093Z,0
2017-10-28T04:07:51.085Z,0
2017-10-28T04:08:50.754Z,0
2017-10-28T04:09:51.071Z,0
2017-10-28T04:10:50.738Z,0
2017-10-28T04:11:51.050Z,0
2017-10-28T04:12:50.726Z,0
2017-10-28T04:13:50.721Z,0
2017-10-28T04:14:51.021Z,0
2017-10-28T04:15:51.018Z,0
2017-10-28T04:16:51.000Z,0
2017-10-28T04:17:50.993Z,0
2017-10-28T04:18:50.667Z,0
2017-10-28T04:19:50.986Z,0
2017-10-28T04:20:50.642Z,0
2017-10-28T04:21:50.632Z,0
2017-10-28T04:22:50.625Z,0
2017-10-28T04:23:50.613Z,0
2017-10-28T04:24:50.935Z,0
2017-10-28T04:25:50.598Z,0
2017-10-28T04:26:50.598Z,0
2017-10-28T04:27:50.577Z,0
2017-10-28T04:28:50.893Z,0
2017-10-28T04:29:50.884Z,0
2017-10-28T04:30:50.876Z,0
2017-10-28T04:31:50.874Z,0
2017-10-28T04:32:50.534Z,0
2017-10-28T04:33:50.774Z,0
2017-10-28T04:34:50.837Z,0
2017-10-28T04:35:50.830Z,0
2017-10-28T04:36:50.500Z,0
2017-10-28T04:37:50.811Z,0
2017-10-28T04:38:50.795Z,0
2017-10-28T04:39:50.790Z,0
2017-10-28T04:40:50.783Z,0
2017-10-28T04:41:50.766Z,0
2017-10-28T04:42:50.767Z,0
2017-10-28T04:43:50.761Z,0
2017-10-28T04:44:50.741Z,0
2017-10-28T04:45:50.729Z,0
2017-10-28T04:46:50.402Z,0
2017-10-28T04:47:50.716Z,0
2017-10-28T04:48:50.700Z,0
2017-10-28T04:49:50.721Z,0
2017-10-28T04:50:50.363Z,0
2017-10-28T04:51:50.677Z,0
2017-10-28T04:52:50.668Z,0
2017-10-28T04:53:50.653Z,0
2017-10-28T04:54:50.647Z,0
2017-10-28T04:55:50.653Z,0
2017-10-28T04:56:49.985Z,0
2017-10-28T04:57:50.622Z,0
2017-10-28T04:58:50.285Z,0
2017-10-28T04:59:50.608Z,0
2017-10-28T05:00:50.596Z,0
2017-10-28T05:01:50.261Z,0
2017-10-28T05:02:50.574Z,0
2017-10-28T05:03:50.566Z,0
2017-10-28T05:04:50.485Z,0
2017-10-28T05:05:50.548Z,0
2017-10-28T05:06:50.534Z,0
2017-10-28T05:07:50.533Z,0
2017-10-28T05:08:50.518Z,0
2017-10-28T05:09:50.509Z,0
2017-10-28T05:10:50.176Z,0
2017-10-28T05:11:50.489Z,0
2017-10-28T05:12:50.481Z,0
2017-10-28T05:13:50.160Z,0
2017-10-28T05:14:50.457Z,0
2017-10-28T05:15:50.448Z,0
2017-10-28T05:16:50.121Z,0
2017-10-28T05:17:50.109Z,0
2017-10-28T05:18:50.417Z,0
2017-10-28T05:19:50.429Z,0
2017-10-28T05:20:50.403Z,0
2017-10-28T05:21:50.393Z,0
2017-10-28T05:22:50.066Z,0
2017-10-28T05:23:50.379Z,0
2017-10-28T05:24:50.050Z,0
2017-10-28T05:25:50.362Z,0
2017-10-28T05:26:50.359Z,4
2017-10-28T05:27:50.342Z,4
2017-10-28T05:28:50.326Z,4
2017-10-28T05:29:49.998Z,4
2017-10-28T05:30:49.984Z,4
2017-10-28T05:31:49.976Z,8
2017-10-28T05:32:50.308Z,8
2017-10-28T05:33:49.973Z,8
2017-10-28T05:34:50.277Z,8
2017-10-28T05:35:50.194Z,8
2017-10-28T05:36:50.258Z,12
2017-10-28T05:37:49.924Z,12
2017-10-28T05:38:49.913Z,16
2017-10-28T05:39:50.235Z,20
2017-10-28T05:40:50.214Z,24
2017-10-28T05:41:50.208Z,32
2017-10-28T05:42:50.201Z,32
2017-10-28T05:43:49.861Z,36
2017-10-28T05:44:50.175Z,40
2017-10-28T05:45:49.851Z,48
2017-10-28T05:46:50.178Z,60
2017-10-28T05:47:49.831Z,68
2017-10-28T05:48:49.829Z,76
2017-10-28T05:49:50.133Z,84
2017-10-28T05:50:50.116Z,76
2017-10-28T05:51:49.792Z,64
2017-10-28T05:52:50.105Z,64
2017-10-28T05:53:49.767Z,84
2017-10-28T05:54:49.768Z,72
2017-10-28T05:55:50.080Z,68
2017-10-28T05:56:49.740Z,88
2017-10-28T05:57:50.056Z,88
2017-10-28T05:58:49.399Z,100
2017-10-28T05:59:50.039Z,80
2017-10-28T06:00:50.031Z,96
2017-10-28T06:01:50.022Z,100
2017-10-28T06:02:50.008Z,100
2017-10-28T06:03:50.004Z,120
2017-10-28T06:04:50.004Z,156
2017-10-28T06:05:49.979Z,164
2017-10-28T06:06:49.898Z,216
2017-10-28T06:07:49.960Z,212
2017-10-28T06:08:49.641Z,204
2017-10-28T06:09:49.951Z,272
2017-10-28T06:10:49.972Z,332
2017-10-28T06:11:49.926Z,408
2017-10-28T06:12:49.915Z,408
2017-10-28T06:13:49.596Z,312
2017-10-28T06:14:49.910Z,340
2017-10-28T06:15:49.561Z,440
2017-10-28T06:16:49.881Z,564
2017-10-28T06:17:49.562Z,576
2017-10-28T06:18:49.862Z,748
2017-10-28T06:19:49.859Z,696
2017-10-28T06:20:49.839Z,712
2017-10-28T06:21:49.840Z,712
2017-10-28T06:22:49.825Z,832
2017-10-28T06:23:49.817Z,808
2017-10-28T06:24:49.482Z,636
2017-10-28T06:25:49.796Z,640
2017-10-28T06:26:49.791Z,516
2017-10-28T06:27:49.132Z,528
2017-10-28T06:28:49.816Z,688
2017-10-28T06:29:49.117Z,996
2017-10-28T06:30:49.752Z,1148
2017-10-28T06:31:49.421Z,1040
2017-10-28T06:32:49.411Z,1108
2017-10-28T06:33:49.725Z,1000
2017-10-28T06:34:49.393Z,1004
2017-10-28T06:35:49.708Z,896
2017-10-28T06:36:49.374Z,844
2017-10-28T06:37:49.967Z,944
2017-10-28T06:38:49.673Z,988
2017-10-28T06:39:49.667Z,1232
2017-10-28T06:40:49.346Z,1092
2017-10-28T06:41:49.327Z,1128
2017-10-28T06:42:49.642Z,1144
2017-10-28T06:43:49.636Z,1292
2017-10-28T06:44:49.299Z,916
2017-10-28T06:45:48.970Z,1016
2017-10-28T06:46:49.283Z,1412
2017-10-28T06:47:49.274Z,1812
2017-10-28T06:48:49.594Z,1712
2017-10-28T06:49:49.582Z,1984
2017-10-28T06:50:49.590Z,2024
2017-10-28T06:51:49.572Z,2168
2017-10-28T06:52:49.556Z,2616
2017-10-28T06:53:48.899Z,2960
2017-10-28T06:54:49.528Z,2404
2017-10-28T06:55:49.525Z,2516
2017-10-28T06:56:49.205Z,2928
2017-10-28T06:57:49.503Z,3144
2017-10-28T06:58:49.505Z,3564
2017-10-28T06:59:49.490Z,3684
2017-10-28T07:00:49.483Z,4004
2017-10-28T07:01:49.469Z,3848
2017-10-28T07:02:49.457Z,4328
2017-10-28T07:03:49.449Z,4616
2017-10-28T07:04:49.441Z,4172
2017-10-28T07:05:49.439Z,4440
2017-10-28T07:06:49.102Z,3808
2017-10-28T07:07:49.422Z,4336
2017-10-28T07:08:49.092Z,4336
2017-10-28T07:09:49.404Z,4028
2017-10-28T07:10:49.073Z,3596
2017-10-28T07:11:49.426Z,3492
2017-10-28T07:12:49.048Z,3212
2017-10-28T07:13:49.366Z,3052
2017-10-28T07:14:48.711Z,2632
2017-10-28T07:15:49.382Z,2492
2017-10-28T07:16:49.024Z,2924
2017-10-28T07:17:49.331Z,2628
2017-10-28T07:18:48.675Z,2284
2017-10-28T07:19:48.991Z,2332
2017-10-28T07:20:49.310Z,2364
2017-10-28T07:21:48.977Z,2624
2017-10-28T07:22:49.292Z,2120
2017-10-28T07:23:49.284Z,2252
2017-10-28T07:24:48.956Z,2576
2017-10-28T07:25:48.973Z,2468
2017-10-28T07:26:49.254Z,2520
2017-10-28T07:27:48.943Z,2400
2017-10-28T07:28:49.239Z,2264
2017-10-28T07:29:48.905Z,2180
2017-10-28T07:30:48.898Z,1900
2017-10-28T07:31:48.893Z,2068
2017-10-28T07:32:49.201Z,2208
2017-10-28T07:33:49.205Z,2460
2017-10-28T07:34:49.190Z,2832
2017-10-28T07:35:49.179Z,2928
2017-10-28T07:36:48.849Z,3028
2017-10-28T07:37:49.163Z,2472
2017-10-28T07:38:49.160Z,2112
2017-10-28T07:39:48.830Z,2276
2017-10-28T07:40:48.497Z,2456
2017-10-28T07:41:48.481Z,2788
2017-10-28T07:42:48.475Z,2640
2017-10-28T07:43:49.110Z,2800
2017-10-28T07:44:49.098Z,2928
2017-10-28T07:45:49.101Z,3968
2017-10-28T07:46:48.759Z,4288
2017-10-28T07:47:49.076Z,4400
2017-10-28T07:48:49.077Z,4364
2017-10-28T07:49:48.740Z,4100
2017-10-28T07:50:48.730Z,4388
2017-10-28T07:51:48.395Z,4432
2017-10-28T07:52:49.032Z,5352
2017-10-28T07:53:48.715Z,5216
2017-10-28T07:54:49.026Z,5020
2017-10-28T07:55:49.028Z,5440
2017-10-28T07:56:49.000Z,6240
2017-10-28T07:57:48.992Z,5492
2017-10-28T07:58:48.984Z,4628
2017-10-28T07:59:48.977Z,4784
2017-10-28T08:00:48.647Z,3784
2017-10-28T08:01:48.970Z,3172
2017-10-28T08:02:48.960Z,4232
2017-10-28T08:03:48.633Z,3980
2017-10-28T08:04:48.940Z,3396
2017-10-28T08:05:48.618Z,3116
2017-10-28T08:06:48.595Z,2608
2017-10-28T08:07:48.603Z,1988
2017-10-28T08:08:48.578Z,2008
2017-10-28T08:09:48.572Z,2452
2017-10-28T08:10:48.568Z,2824
2017-10-28T08:11:49.133Z,3572
2017-10-28T08:12:48.552Z,4616
2017-10-28T08:13:48.538Z,4464
2017-10-28T08:14:48.860Z,3800
2017-10-28T08:15:48.855Z,3136
2017-10-28T08:16:48.840Z,3048
2017-10-28T08:17:48.510Z,4892
2017-10-28T08:18:48.822Z,4960
2017-10-28T08:19:48.820Z,3884
2017-10-28T08:20:48.488Z,4028
2017-10-28T08:21:48.480Z,3472
2017-10-28T08:22:48.795Z,2820
2017-10-28T08:23:48.807Z,3012
2017-10-28T08:24:48.772Z,3624
2017-10-28T08:25:48.767Z,3464
2017-10-28T08:26:48.451Z,2648
2017-10-28T08:27:48.431Z,2892
2017-10-28T08:28:48.744Z,2712
2017-10-28T08:29:48.736Z,2516
2017-10-28T08:30:48.725Z,2288
2017-10-28T08:31:48.719Z,2068
2017-10-28T08:32:48.711Z,2144
2017-10-28T08:33:48.703Z,2428
2017-10-28T08:34:48.370Z,1692
2017-10-28T08:35:48.368Z,1592
2017-10-28T08:36:48.680Z,1892
2017-10-28T08:37:48.352Z,2112
2017-10-28T08:38:48.339Z,1920
2017-10-28T08:39:48.658Z,1988
2017-10-28T08:40:48.327Z,2020
2017-10-28T08:41:48.328Z,1728
2017-10-28T08:42:48.561Z,1516
2017-10-28T08:43:48.309Z,1704
2017-10-28T08:44:48.299Z,1832
2017-10-28T08:45:48.605Z,1816
2017-10-28T08:46:48.605Z,2132
2017-10-28T08:47:48.589Z,2420
2017-10-28T08:48:48.589Z,2148
2017-10-28T08:49:48.571Z,2116
2017-10-28T08:50:48.563Z,2276
2017-10-28T08:51:48.561Z,3060
2017-10-28T08:52:48.546Z,4324
2017-10-28T08:53:48.546Z,4776
2017-10-28T08:54:48.209Z,6632
2017-10-28T08:55:47.881Z,6676
2017-10-28T08:56:48.192Z,5252
2017-10-28T08:57:48.513Z,4312
2017-10-28T08:58:48.179Z,4508
2017-10-28T08:59:48.168Z,4584
2017-10-28T09:00:48.165Z,3736
2017-10-28T09:01:48.153Z,3676
2017-10-28T09:02:48.142Z,3716
2017-10-28T09:03:48.465Z,3560
2017-10-28T09:04:48.455Z,4040
2017-10-28T09:05:48.124Z,4496
2017-10-28T09:06:48.125Z,5716
2017-10-28T09:07:48.434Z,5616
2017-10-28T09:08:48.673Z,5676
2017-10-28T09:09:48.092Z,4128
2017-10-28T09:10:48.434Z,4032
2017-10-28T09:11:48.404Z,4424
2017-10-28T09:12:48.403Z,4692
2017-10-28T09:13:48.060Z,6204
2017-10-28T09:14:48.050Z,6168
2017-10-28T09:15:48.368Z,5452
2017-10-28T09:16:48.354Z,4616
2017-10-28T09:17:48.359Z,5372
2017-10-28T09:18:48.018Z,6712
2017-10-28T09:19:48.346Z,6856
2017-10-28T09:20:48.336Z,5236
2017-10-28T09:21:48.327Z,4692
2017-10-28T09:22:47.664Z,4232
2017-10-28T09:23:48.579Z,4892
2017-10-28T09:24:47.975Z,5096
2017-10-28T09:25:47.968Z,5288
2017-10-28T09:26:48.297Z,5252
2017-10-28T09:27:47.961Z,3436
2017-10-28T09:28:47.622Z,4080
2017-10-28T09:29:48.262Z,4364
2017-10-28T09:30:48.270Z,4212
2017-10-28T09:31:48.242Z,4476
2017-10-28T09:32:48.235Z,4440
2017-10-28T09:33:47.908Z,4340
2017-10-28T09:34:47.904Z,3480
2017-10-28T09:35:47.887Z,3176
2017-10-28T09:36:48.219Z,3392
2017-10-28T09:37:48.198Z,3172
2017-10-28T09:38:48.197Z,2700
2017-10-28T09:39:48.181Z,2408
2017-10-28T09:40:47.852Z,2544
2017-10-28T09:41:48.177Z,2280
2017-10-28T09:42:48.169Z,1972
2017-10-28T09:43:48.159Z,2024
2017-10-28T09:44:48.399Z,2232
2017-10-28T09:45:47.815Z,2996
2017-10-28T09:46:48.142Z,3416
2017-10-28T09:47:47.800Z,4488
2017-10-28T09:48:48.111Z,4528
2017-10-28T09:49:47.787Z,5556
2017-10-28T09:50:48.104Z,5848
2017-10-28T09:51:47.775Z,5836
2017-10-28T09:52:48.087Z,5904
2017-10-28T09:53:47.755Z,5548
2017-10-28T09:54:47.441Z,5068
2017-10-28T09:55:47.740Z,5752
2017-10-28T09:56:48.053Z,6396
2017-10-28T09:57:48.047Z,6436
2017-10-28T09:58:48.040Z,8760
2017-10-28T09:59:47.717Z,9224
2017-10-28T10:00:47.708Z,8308
2017-10-28T10:01:47.691Z,7084
2017-10-28T10:02:47.687Z,7000
2017-10-28T10:03:48.005Z,5896
2017-10-28T10:04:47.682Z,6260
2017-10-28T10:05:47.990Z,5844
2017-10-28T10:06:47.669Z,5332
2017-10-28T10:07:47.657Z,5616
2017-10-28T10:08:47.961Z,7448
2017-10-28T10:09:47.956Z,5876
2017-10-28T10:10:47.634Z,5540
2017-10-28T10:11:47.620Z,5984
2017-10-28T10:12:47.614Z,4680
2017-10-28T10:13:47.927Z,4520
2017-10-28T10:14:47.275Z,4368
2017-10-28T10:15:48.162Z,4528
2017-10-28T10:16:47.911Z,3464
2017-10-28T10:17:47.895Z,3128
2017-10-28T10:18:47.894Z,3424
2017-10-28T10:19:47.884Z,3780
2017-10-28T10:20:47.884Z,3764
2017-10-28T10:21:47.880Z,3828
2017-10-28T10:22:47.867Z,4000
2017-10-28T10:23:47.871Z,4112
2017-10-28T10:24:47.850Z,3656
2017-10-28T10:25:47.839Z,3684
2017-10-28T10:26:47.515Z,3320
2017-10-28T10:27:47.834Z,3788
2017-10-28T10:28:47.823Z,2984
2017-10-28T10:29:47.816Z,2532
2017-10-28T10:30:47.805Z,2440
2017-10-28T10:31:47.815Z,2260
2017-10-28T10:32:47.466Z,2628
2017-10-28T10:33:47.790Z,2712
2017-10-28T10:34:47.773Z,2392
2017-10-28T10:35:47.767Z,2300
2017-10-28T10:36:47.435Z,2064
2017-10-28T10:37:47.753Z,1952
2017-10-28T10:38:47.755Z,2036
2017-10-28T10:39:47.093Z,2360
2017-10-28T10:40:47.733Z,2492
2017-10-28T10:41:47.724Z,2736
2017-10-28T10:42:47.071Z,2952
2017-10-28T10:43:47.710Z,3220
2017-10-28T10:44:47.703Z,3804
2017-10-28T10:45:47.697Z,4404
2017-10-28T10:46:47.613Z,5016
2017-10-28T10:47:47.359Z,5352
2017-10-28T10:48:47.346Z,5524
2017-10-28T10:49:47.343Z,5204
2017-10-28T10:50:47.339Z,4684
2017-10-28T10:51:47.654Z,4700
2017-10-28T10:52:47.643Z,4408
2017-10-28T10:53:47.634Z,4568
2017-10-28T10:54:47.631Z,4860
2017-10-28T10:55:47.617Z,4500
2017-10-28T10:56:46.975Z,4672
2017-10-28T10:57:47.605Z,6240
2017-10-28T10:58:47.607Z,8748
2017-10-28T10:59:47.589Z,7200
2017-10-28T11:00:47.587Z,6196
2017-10-28T11:01:47.575Z,6796
2017-10-28T11:02:47.578Z,6156
2017-10-28T11:03:47.233Z,5944
2017-10-28T11:04:47.551Z,5724
2017-10-28T11:05:47.551Z,5528
2017-10-28T11:06:47.539Z,4896
2017-10-28T11:07:46.881Z,5384
2017-10-28T11:08:47.530Z,4888
2017-10-28T11:09:47.513Z,4932
2017-10-28T11:10:47.185Z,4952
2017-10-28T11:11:47.183Z,4644
2017-10-28T11:12:47.508Z,4904
2017-10-28T11:13:47.500Z,4952
2017-10-28T11:14:47.478Z,5736
2017-10-28T11:15:47.148Z,5932
2017-10-28T11:16:47.141Z,5248
2017-10-28T11:17:47.472Z,4240
2017-10-28T11:18:47.463Z,3660
2017-10-28T11:19:47.340Z,3436
2017-10-28T11:20:46.795Z,3964
2017-10-28T11:21:47.424Z,3880
2017-10-28T11:22:47.421Z,3036
2017-10-28T11:23:47.421Z,3552
2017-10-28T11:24:47.409Z,3408
2017-10-28T11:25:47.399Z,3500
2017-10-28T11:26:47.407Z,3456
2017-10-28T11:27:47.389Z,2896
2017-10-28T11:28:47.393Z,3704
2017-10-28T11:29:47.048Z,3984
2017-10-28T11:30:47.369Z,3720
2017-10-28T11:31:47.364Z,3960
2017-10-28T11:32:47.351Z,4908
2017-10-28T11:33:47.343Z,4464
2017-10-28T11:34:47.018Z,3544
2017-10-28T11:35:47.363Z,3036
2017-10-28T11:36:47.344Z,3632
2017-10-28T11:37:46.998Z,3172
2017-10-28T11:38:46.987Z,3216
2017-10-28T11:39:46.982Z,2560
2017-10-28T11:40:46.972Z,2320
2017-10-28T11:41:47.295Z,2276
2017-10-28T11:42:47.282Z,2464
2017-10-28T11:43:46.950Z,2436
2017-10-28T11:44:47.262Z,1920
2017-10-28T11:45:47.259Z,1996
2017-10-28T11:46:47.248Z,1848
2017-10-28T11:47:46.926Z,2016
2017-10-28T11:48:46.920Z,2612
2017-10-28T11:49:47.173Z,2480
2017-10-28T11:50:47.232Z,2980
2017-10-28T11:51:47.211Z,3276
2017-10-28T11:52:47.213Z,3448
2017-10-28T11:53:46.887Z,3508
2017-10-28T11:54:47.195Z,4616
2017-10-28T11:55:47.183Z,4456
2017-10-28T11:56:47.178Z,4956
2017-10-28T11:57:46.846Z,3724
2017-10-28T11:58:47.162Z,3760
2017-10-28T11:59:47.153Z,3940
2017-10-28T12:00:47.145Z,4640
2017-10-28T12:01:46.835Z,3012
2017-10-28T12:02:47.155Z,3108
2017-10-28T12:03:47.140Z,3904
2017-10-28T12:04:47.119Z,3084
2017-10-28T12:05:47.108Z,3832
2017-10-28T12:06:47.102Z,3760
2017-10-28T12:07:47.091Z,3128
2017-10-28T12:08:46.766Z,3744
2017-10-28T12:09:46.778Z,4324
2017-10-28T12:10:47.070Z,3160
2017-10-28T12:11:47.065Z,3820
2017-10-28T12:12:47.063Z,3580
2017-10-28T12:13:46.728Z,3464
2017-10-28T12:14:47.046Z,3292
2017-10-28T12:15:47.037Z,3200
2017-10-28T12:16:47.080Z,3456
2017-10-28T12:17:47.056Z,3884
2017-10-28T12:18:47.025Z,3636
2017-10-28T12:19:47.004Z,3716
2017-10-28T12:20:46.926Z,3672
2017-10-28T12:21:46.671Z,3220
2017-10-28T12:22:46.993Z,2428
2017-10-28T12:23:46.973Z,2524
2017-10-28T12:24:46.662Z,2884
2017-10-28T12:25:46.638Z,2624
2017-10-28T12:26:46.950Z,3360
2017-10-28T12:27:46.950Z,2996
2017-10-28T12:28:46.941Z,2584
2017-10-28T12:29:46.934Z,2380
2017-10-28T12:30:46.598Z,2244
2017-10-28T12:31:46.918Z,2072
2017-10-28T12:32:46.592Z,2108
2017-10-28T12:33:46.904Z,2216
2017-10-28T12:34:46.893Z,2416
2017-10-28T12:35:46.895Z,3112
2017-10-28T12:36:46.561Z,3816
2017-10-28T12:37:46.868Z,5128
2017-10-28T12:38:46.873Z,4556
2017-10-28T12:39:46.539Z,3944
2017-10-28T12:40:46.851Z,4940
2017-10-28T12:41:46.843Z,4436
2017-10-28T12:42:46.541Z,4192
2017-10-28T12:43:46.833Z,4960
2017-10-28T12:44:46.503Z,4364
2017-10-28T12:45:46.491Z,3320
2017-10-28T12:46:46.814Z,3188
2017-10-28T12:47:46.797Z,4104
2017-10-28T12:48:46.795Z,3772
2017-10-28T12:49:46.780Z,3712
2017-10-28T12:50:46.774Z,3920
2017-10-28T12:51:46.698Z,3832
2017-10-28T12:52:46.438Z,3380
2017-10-28T12:53:46.765Z,4412
2017-10-28T12:54:46.751Z,5588
2017-10-28T12:55:46.417Z,5440
2017-10-28T12:56:46.737Z,4480
2017-10-28T12:57:46.402Z,3836
2017-10-28T12:58:46.718Z,3216
2017-10-28T12:59:46.388Z,3388
2017-10-28T13:00:46.699Z,2588
2017-10-28T13:01:46.694Z,2488
2017-10-28T13:02:46.691Z,2704
2017-10-28T13:03:46.689Z,3020
2017-10-28T13:04:46.681Z,2296
2017-10-28T13:05:46.670Z,2116
2017-10-28T13:06:46.670Z,2140
2017-10-28T13:07:46.361Z,1788
2017-10-28T13:08:46.323Z,1948
2017-10-28T13:09:46.314Z,1536
2017-10-28T13:10:46.308Z,1560
2017-10-28T13:11:46.626Z,1392
2017-10-28T13:12:46.620Z,1408
2017-10-28T13:13:46.615Z,1444
2017-10-28T13:14:46.607Z,1392
2017-10-28T13:15:46.600Z,1492
2017-10-28T13:16:46.590Z,1780
2017-10-28T13:17:46.603Z,1840
2017-10-28T13:18:46.248Z,2492
2017-10-28T13:19:46.240Z,2500
2017-10-28T13:20:46.557Z,2200
2017-10-28T13:21:45.903Z,2452
2017-10-28T13:22:46.790Z,2296
2017-10-28T13:23:46.539Z,1548
2017-10-28T13:24:46.526Z,1492
2017-10-28T13:25:46.519Z,1608
2017-10-28T13:26:46.190Z,1396
2017-10-28T13:27:46.506Z,1544
2017-10-28T13:28:46.500Z,2432
2017-10-28T13:29:46.487Z,2232
2017-10-28T13:30:46.476Z,2016
2017-10-28T13:31:46.472Z,2452
2017-10-28T13:32:46.153Z,2232
2017-10-28T13:33:46.173Z,1988
2017-10-28T13:34:46.448Z,1832
2017-10-28T13:35:46.122Z,1752
2017-10-28T13:36:46.445Z,1540
2017-10-28T13:37:46.428Z,1940
2017-10-28T13:38:46.106Z,1720
2017-10-28T13:39:46.090Z,1888
2017-10-28T13:40:46.418Z,1888
2017-10-28T13:41:45.754Z,1728
2017-10-28T13:42:46.393Z,1712
2017-10-28T13:43:46.388Z,1688
2017-10-28T13:44:46.374Z,1880
2017-10-28T13:45:46.368Z,1636
2017-10-28T13:46:46.364Z,1528
2017-10-28T13:47:46.356Z,1664
2017-10-28T13:48:46.355Z,1404
2017-10-28T13:49:45.697Z,1428
2017-10-28T13:50:46.339Z,1428
2017-10-28T13:51:46.330Z,1276
2017-10-28T13:52:46.316Z,1208
2017-10-28T13:53:45.987Z,1224
2017-10-28T13:54:46.295Z,1292